sensor_id;sensor_type;location;lat;lon;timestamp;P1;P2;P0
62631;PMS5003;48703;51.248;-0.546;2022-07-29T00:01:21;3.91;3.79;
62631;PMS5003;48703;51.248;-0.546;2022-07-29T00:04:23;4.37;4.03;
62631;PMS5003;48703;51.248;-0.546;2022-07-29T00:07:24;2.97;2.46;
62631;PMS5003;48703;51.248;-0.546;2022-07-29T00:10:27;3.27;3.17;
62631;PMS5003;48703;51.248;-0.546;2022-07-29T00:13:27;3.47;3.04;
62631;PMS5003;48703;51.248;-0.546;2022-07-29T00:16:29;4.37;3.90;
62631;PMS5003;48703;51.248;-0.546;2022-07-29T00:19:30;3.20;3.20;
62631;PMS5003;48703;51.248;-0.546;2022-07-29T00:22:32;3.83;3.36;
62631;PMS5003;48703;51.248;-0.546;2022-07-29T00:25:34;3.26;3.17;
62631;PMS5003;48703;51.248;-0.546;2022-07-29T00:28:35;3.36;2.79;
62631;PMS5003;48703;51.248;-0.546;2022-07-29T00:31:37;4.06;3.74;
62631;PMS5003;48703;51.248;-0.546;2022-07-29T00:34:38;2.89;2.89;
62631;PMS5003;48703;51.248;-0.546;2022-07-29T00:37:40;3.11;2.80;
62631;PMS5003;48703;51.248;-0.546;2022-07-29T00:40:42;3.73;3.73;
62631;PMS5003;48703;51.248;-0.546;2022-07-29T00:43:43;2.83;2.83;
62631;PMS5003;48703;51.248;-0.546;2022-07-29T00:46:44;3.60;3.33;
62631;PMS5003;48703;51.248;-0.546;2022-07-29T00:49:46;3.69;3.00;
62631;PMS5003;48703;51.248;-0.546;2022-07-29T00:52:47;4.20;3.34;
62631;PMS5003;48703;51.248;-0.546;2022-07-29T00:55:49;3.87;2.84;
62631;PMS5003;48703;51.248;-0.546;2022-07-29T00:58:51;3.40;3.40;
62631;PMS5003;48703;51.248;-0.546;2022-07-29T01:01:52;3.81;3.81;
62631;PMS5003;48703;51.248;-0.546;2022-07-29T01:04:54;3.49;2.84;
62631;PMS5003;48703;51.248;-0.546;2022-07-29T01:07:55;3.77;3.64;
62631;PMS5003;48703;51.248;-0.546;2022-07-29T01:10:57;3.41;2.77;
62631;PMS5003;48703;51.248;-0.546;2022-07-29T01:13:58;3.97;3.17;
62631;PMS5003;48703;51.248;-0.546;2022-07-29T01:17:02;3.86;3.39;
62631;PMS5003;48703;51.248;-0.546;2022-07-29T01:20:02;2.94;2.80;
62631;PMS5003;48703;51.248;-0.546;2022-07-29T01:23:13;4.43;4.04;
62631;PMS5003;48703;51.248;-0.546;2022-07-29T01:26:09;3.81;3.81;
62631;PMS5003;48703;51.248;-0.546;2022-07-29T01:29:06;4.71;3.99;
62631;PMS5003;48703;51.248;-0.546;2022-07-29T01:32:08;5.20;3.87;
62631;PMS5003;48703;51.248;-0.546;2022-07-29T01:35:11;4.47;4.03;
62631;PMS5003;48703;51.248;-0.546;2022-07-29T01:38:12;5.37;4.90;
62631;PMS5003;48703;51.248;-0.546;2022-07-29T01:41:13;5.04;3.79;
62631;PMS5003;48703;51.248;-0.546;2022-07-29T01:44:15;4.69;4.33;
62631;PMS5003;48703;51.248;-0.546;2022-07-29T01:47:17;3.64;3.64;
62631;PMS5003;48703;51.248;-0.546;2022-07-29T01:50:17;3.61;3.53;
62631;PMS5003;48703;51.248;-0.546;2022-07-29T01:53:21;5.84;4.73;
62631;PMS5003;48703;51.248;-0.546;2022-07-29T01:56:20;5.37;4.94;
62631;PMS5003;48703;51.248;-0.546;2022-07-29T01:59:21;5.49;4.59;
62631;PMS5003;48703;51.248;-0.546;2022-07-29T02:02:23;4.89;4.80;
62631;PMS5003;48703;51.248;-0.546;2022-07-29T02:05:25;5.14;4.80;
62631;PMS5003;48703;51.248;-0.546;2022-07-29T02:08:26;4.06;4.06;
62631;PMS5003;48703;51.248;-0.546;2022-07-29T02:11:28;4.37;4.16;
62631;PMS5003;48703;51.248;-0.546;2022-07-29T02:14:31;4.24;3.81;
62631;PMS5003;48703;51.248;-0.546;2022-07-29T02:17:33;3.93;3.93;
62631;PMS5003;48703;51.248;-0.546;2022-07-29T02:20:32;5.33;5.07;
62631;PMS5003;48703;51.248;-0.546;2022-07-29T02:23:34;4.56;4.39;
62631;PMS5003;48703;51.248;-0.546;2022-07-29T02:26:35;4.91;4.23;
62631;PMS5003;48703;51.248;-0.546;2022-07-29T02:29:37;5.49;3.97;
62631;PMS5003;48703;51.248;-0.546;2022-07-29T02:32:39;4.40;4.27;
62631;PMS5003;48703;51.248;-0.546;2022-07-29T02:35:40;5.19;4.53;
62631;PMS5003;48703;51.248;-0.546;2022-07-29T02:38:42;4.96;4.36;
62631;PMS5003;48703;51.248;-0.546;2022-07-29T02:41:44;5.43;5.24;
62631;PMS5003;48703;51.248;-0.546;2022-07-29T02:44:45;4.09;3.86;
62631;PMS5003;48703;51.248;-0.546;2022-07-29T02:47:47;5.24;4.60;
62631;PMS5003;48703;51.248;-0.546;2022-07-29T02:50:48;5.86;5.00;
62631;PMS5003;48703;51.248;-0.546;2022-07-29T02:53:51;4.61;4.24;
62631;PMS5003;48703;51.248;-0.546;2022-07-29T02:56:51;5.24;5.24;
62631;PMS5003;48703;51.248;-0.546;2022-07-29T02:59:52;3.83;3.56;
62631;PMS5003;48703;51.248;-0.546;2022-07-29T03:02:55;5.47;5.47;
62631;PMS5003;48703;51.248;-0.546;2022-07-29T03:05:56;5.26;5.24;
62631;PMS5003;48703;51.248;-0.546;2022-07-29T03:08:57;5.43;5.43;
62631;PMS5003;48703;51.248;-0.546;2022-07-29T03:11:58;5.96;5.13;
62631;PMS5003;48703;51.248;-0.546;2022-07-29T03:15:01;8.20;6.06;
62631;PMS5003;48703;51.248;-0.546;2022-07-29T03:18:02;5.47;5.14;
62631;PMS5003;48703;51.248;-0.546;2022-07-29T03:21:04;4.51;4.44;
62631;PMS5003;48703;51.248;-0.546;2022-07-29T03:24:06;8.00;6.09;
62631;PMS5003;48703;51.248;-0.546;2022-07-29T03:27:07;4.54;4.51;
62631;PMS5003;48703;51.248;-0.546;2022-07-29T03:30:09;5.30;4.74;
62631;PMS5003;48703;51.248;-0.546;2022-07-29T03:33:10;6.49;4.81;
62631;PMS5003;48703;51.248;-0.546;2022-07-29T03:36:11;5.35;5.35;
62631;PMS5003;48703;51.248;-0.546;2022-07-29T03:39:14;5.90;4.77;
62631;PMS5003;48703;51.248;-0.546;2022-07-29T03:42:15;4.83;4.30;
62631;PMS5003;48703;51.248;-0.546;2022-07-29T03:45:17;5.23;5.09;
62631;PMS5003;48703;51.248;-0.546;2022-07-29T03:48:20;6.44;5.34;
62631;PMS5003;48703;51.248;-0.546;2022-07-29T03:51:19;5.73;4.91;
62631;PMS5003;48703;51.248;-0.546;2022-07-29T03:54:21;5.06;5.06;
62631;PMS5003;48703;51.248;-0.546;2022-07-29T03:57:24;5.42;5.42;
62631;PMS5003;48703;51.248;-0.546;2022-07-29T04:00:24;5.44;5.01;
62631;PMS5003;48703;51.248;-0.546;2022-07-29T04:03:25;3.76;3.76;
62631;PMS5003;48703;51.248;-0.546;2022-07-29T04:06:27;5.49;4.66;
62631;PMS5003;48703;51.248;-0.546;2022-07-29T04:09:28;4.13;4.13;
62631;PMS5003;48703;51.248;-0.546;2022-07-29T04:12:30;5.59;5.16;
62631;PMS5003;48703;51.248;-0.546;2022-07-29T04:15:32;4.57;4.57;
62631;PMS5003;48703;51.248;-0.546;2022-07-29T04:18:33;5.37;5.37;
62631;PMS5003;48703;51.248;-0.546;2022-07-29T04:21:36;7.11;5.96;
62631;PMS5003;48703;51.248;-0.546;2022-07-29T04:24:36;5.74;4.69;
62631;PMS5003;48703;51.248;-0.546;2022-07-29T04:27:38;4.71;4.57;
62631;PMS5003;48703;51.248;-0.546;2022-07-29T04:30:39;5.49;4.91;
62631;PMS5003;48703;51.248;-0.546;2022-07-29T04:33:40;4.51;4.49;
62631;PMS5003;48703;51.248;-0.546;2022-07-29T04:36:42;4.73;4.73;
62631;PMS5003;48703;51.248;-0.546;2022-07-29T04:39:44;5.50;5.13;
62631;PMS5003;48703;51.248;-0.546;2022-07-29T04:42:45;5.99;5.34;
62631;PMS5003;48703;51.248;-0.546;2022-07-29T04:45:47;6.40;5.29;
62631;PMS5003;48703;51.248;-0.546;2022-07-29T04:48:48;5.74;4.64;
62631;PMS5003;48703;51.248;-0.546;2022-07-29T04:51:50;6.61;5.86;
62631;PMS5003;48703;51.248;-0.546;2022-07-29T04:54:51;4.99;4.96;
62631;PMS5003;48703;51.248;-0.546;2022-07-29T04:57:53;6.34;6.04;
62631;PMS5003;48703;51.248;-0.546;2022-07-29T05:00:55;6.03;6.03;
62631;PMS5003;48703;51.248;-0.546;2022-07-29T05:03:56;5.91;5.87;
62631;PMS5003;48703;51.248;-0.546;2022-07-29T05:06:58;6.09;5.13;
62631;PMS5003;48703;51.248;-0.546;2022-07-29T05:09:59;5.61;5.33;
62631;PMS5003;48703;51.248;-0.546;2022-07-29T05:13:01;7.31;6.94;
62631;PMS5003;48703;51.248;-0.546;2022-07-29T05:16:03;8.63;7.33;
62631;PMS5003;48703;51.248;-0.546;2022-07-29T05:19:04;9.17;7.73;
62631;PMS5003;48703;51.248;-0.546;2022-07-29T05:22:06;7.01;6.24;
62631;PMS5003;48703;51.248;-0.546;2022-07-29T05:25:08;6.50;5.60;
62631;PMS5003;48703;51.248;-0.546;2022-07-29T05:28:09;7.19;5.76;
62631;PMS5003;48703;51.248;-0.546;2022-07-29T05:31:10;7.50;6.96;
62631;PMS5003;48703;51.248;-0.546;2022-07-29T05:34:12;4.73;4.73;
62631;PMS5003;48703;51.248;-0.546;2022-07-29T05:37:13;6.23;5.67;
62631;PMS5003;48703;51.248;-0.546;2022-07-29T05:40:15;6.61;6.61;
62631;PMS5003;48703;51.248;-0.546;2022-07-29T05:43:17;8.59;7.56;
62631;PMS5003;48703;51.248;-0.546;2022-07-29T05:46:18;8.17;7.66;
62631;PMS5003;48703;51.248;-0.546;2022-07-29T05:49:19;8.80;7.46;
62631;PMS5003;48703;51.248;-0.546;2022-07-29T05:52:21;7.36;6.33;
62631;PMS5003;48703;51.248;-0.546;2022-07-29T05:55:22;7.36;6.90;
62631;PMS5003;48703;51.248;-0.546;2022-07-29T05:58:24;6.01;5.93;
62631;PMS5003;48703;51.248;-0.546;2022-07-29T06:01:26;8.20;6.96;
62631;PMS5003;48703;51.248;-0.546;2022-07-29T06:04:27;8.52;8.28;
62631;PMS5003;48703;51.248;-0.546;2022-07-29T06:07:28;7.37;7.19;
62631;PMS5003;48703;51.248;-0.546;2022-07-29T06:10:30;7.81;7.47;
62631;PMS5003;48703;51.248;-0.546;2022-07-29T06:13:31;10.10;8.21;
62631;PMS5003;48703;51.248;-0.546;2022-07-29T06:16:33;7.71;7.06;
62631;PMS5003;48703;51.248;-0.546;2022-07-29T06:19:35;7.94;6.56;
62631;PMS5003;48703;51.248;-0.546;2022-07-29T06:22:36;7.77;7.51;
62631;PMS5003;48703;51.248;-0.546;2022-07-29T06:25:39;7.34;7.11;
62631;PMS5003;48703;51.248;-0.546;2022-07-29T06:28:39;8.47;8.11;
62631;PMS5003;48703;51.248;-0.546;2022-07-29T06:31:41;8.43;7.96;
62631;PMS5003;48703;51.248;-0.546;2022-07-29T06:34:42;8.80;7.04;
62631;PMS5003;48703;51.248;-0.546;2022-07-29T06:37:44;9.07;7.83;
62631;PMS5003;48703;51.248;-0.546;2022-07-29T06:40:45;8.41;7.56;
62631;PMS5003;48703;51.248;-0.546;2022-07-29T06:43:47;7.99;7.64;
62631;PMS5003;48703;51.248;-0.546;2022-07-29T06:46:48;7.56;7.56;
62631;PMS5003;48703;51.248;-0.546;2022-07-29T06:49:50;8.63;8.00;
62631;PMS5003;48703;51.248;-0.546;2022-07-29T06:52:52;8.07;6.77;
62631;PMS5003;48703;51.248;-0.546;2022-07-29T06:55:54;7.90;7.64;
62631;PMS5003;48703;51.248;-0.546;2022-07-29T06:58:55;8.99;7.51;
62631;PMS5003;48703;51.248;-0.546;2022-07-29T07:01:57;7.73;7.01;
62631;PMS5003;48703;51.248;-0.546;2022-07-29T07:04:58;9.09;8.57;
62631;PMS5003;48703;51.248;-0.546;2022-07-29T07:08:00;9.04;7.76;
62631;PMS5003;48703;51.248;-0.546;2022-07-29T07:11:01;8.90;8.41;
62631;PMS5003;48703;51.248;-0.546;2022-07-29T07:14:03;9.71;8.50;
62631;PMS5003;48703;51.248;-0.546;2022-07-29T07:17:04;8.64;8.24;
62631;PMS5003;48703;51.248;-0.546;2022-07-29T07:20:06;9.43;7.70;
62631;PMS5003;48703;51.248;-0.546;2022-07-29T07:23:07;7.63;6.86;
62631;PMS5003;48703;51.248;-0.546;2022-07-29T07:26:09;6.64;6.64;
62631;PMS5003;48703;51.248;-0.546;2022-07-29T07:29:10;6.30;6.04;
62631;PMS5003;48703;51.248;-0.546;2022-07-29T07:32:12;7.93;7.71;
62631;PMS5003;48703;51.248;-0.546;2022-07-29T07:35:14;7.16;7.16;
62631;PMS5003;48703;51.248;-0.546;2022-07-29T07:38:15;7.41;6.99;
62631;PMS5003;48703;51.248;-0.546;2022-07-29T07:41:16;10.59;7.69;
62631;PMS5003;48703;51.248;-0.546;2022-07-29T07:44:18;6.77;6.43;
62631;PMS5003;48703;51.248;-0.546;2022-07-29T07:47:19;6.09;5.79;
62631;PMS5003;48703;51.248;-0.546;2022-07-29T07:50:21;6.83;6.46;
62631;PMS5003;48703;51.248;-0.546;2022-07-29T07:53:22;7.79;6.43;
62631;PMS5003;48703;51.248;-0.546;2022-07-29T07:56:24;6.86;6.51;
62631;PMS5003;48703;51.248;-0.546;2022-07-29T07:59:25;7.04;6.54;
62631;PMS5003;48703;51.248;-0.546;2022-07-29T08:02:27;6.71;6.39;
62631;PMS5003;48703;51.248;-0.546;2022-07-29T08:05:28;6.79;6.54;
62631;PMS5003;48703;51.248;-0.546;2022-07-29T08:08:29;8.46;7.07;
62631;PMS5003;48703;51.248;-0.546;2022-07-29T08:11:31;6.83;6.49;
62631;PMS5003;48703;51.248;-0.546;2022-07-29T08:14:32;6.43;5.77;
62631;PMS5003;48703;51.248;-0.546;2022-07-29T08:17:34;6.23;6.07;
62631;PMS5003;48703;51.248;-0.546;2022-07-29T08:20:36;6.67;5.69;
62631;PMS5003;48703;51.248;-0.546;2022-07-29T08:23:37;6.47;6.04;
62631;PMS5003;48703;51.248;-0.546;2022-07-29T08:26:39;6.40;6.09;
62631;PMS5003;48703;51.248;-0.546;2022-07-29T08:29:40;5.86;5.60;
62631;PMS5003;48703;51.248;-0.546;2022-07-29T08:32:41;5.51;5.04;
62631;PMS5003;48703;51.248;-0.546;2022-07-29T08:35:43;6.26;5.17;
62631;PMS5003;48703;51.248;-0.546;2022-07-29T08:38:44;5.36;5.36;
62631;PMS5003;48703;51.248;-0.546;2022-07-29T08:41:46;5.86;5.86;
62631;PMS5003;48703;51.248;-0.546;2022-07-29T08:44:47;6.60;6.04;
62631;PMS5003;48703;51.248;-0.546;2022-07-29T08:47:49;5.23;4.69;
62631;PMS5003;48703;51.248;-0.546;2022-07-29T08:50:52;4.63;4.63;
62631;PMS5003;48703;51.248;-0.546;2022-07-29T08:53:52;5.01;4.80;
62631;PMS5003;48703;51.248;-0.546;2022-07-29T08:56:53;4.97;4.91;
62631;PMS5003;48703;51.248;-0.546;2022-07-29T08:59:55;5.76;5.33;
62631;PMS5003;48703;51.248;-0.546;2022-07-29T09:02:57;5.57;5.06;
62631;PMS5003;48703;51.248;-0.546;2022-07-29T09:05:58;4.96;4.19;
62631;PMS5003;48703;51.248;-0.546;2022-07-29T09:08:59;3.16;2.97;
62631;PMS5003;48703;51.248;-0.546;2022-07-29T09:12:01;3.91;3.91;
62631;PMS5003;48703;51.248;-0.546;2022-07-29T09:15:02;4.14;3.76;
62631;PMS5003;48703;51.248;-0.546;2022-07-29T09:18:03;3.57;3.34;
62631;PMS5003;48703;51.248;-0.546;2022-07-29T09:21:06;3.16;2.30;
62631;PMS5003;48703;51.248;-0.546;2022-07-29T09:24:07;2.86;2.64;
62631;PMS5003;48703;51.248;-0.546;2022-07-29T09:27:11;3.56;3.13;
62631;PMS5003;48703;51.248;-0.546;2022-07-29T09:30:10;3.46;3.46;
62631;PMS5003;48703;51.248;-0.546;2022-07-29T09:33:11;3.00;2.66;
62631;PMS5003;48703;51.248;-0.546;2022-07-29T09:36:12;4.46;3.76;
62631;PMS5003;48703;51.248;-0.546;2022-07-29T09:39:15;4.43;3.87;
62631;PMS5003;48703;51.248;-0.546;2022-07-29T09:42:15;4.61;4.61;
62631;PMS5003;48703;51.248;-0.546;2022-07-29T09:45:26;4.01;4.01;
62631;PMS5003;48703;51.248;-0.546;2022-07-29T09:48:18;5.17;4.40;
62631;PMS5003;48703;51.248;-0.546;2022-07-29T09:51:20;4.97;4.74;
62631;PMS5003;48703;51.248;-0.546;2022-07-29T09:54:21;5.23;3.91;
62631;PMS5003;48703;51.248;-0.546;2022-07-29T09:57:23;4.79;4.36;
62631;PMS5003;48703;51.248;-0.546;2022-07-29T10:00:23;4.81;4.43;
62631;PMS5003;48703;51.248;-0.546;2022-07-29T10:03:25;4.31;4.10;
62631;PMS5003;48703;51.248;-0.546;2022-07-29T10:06:26;3.57;3.57;
62631;PMS5003;48703;51.248;-0.546;2022-07-29T10:09:27;6.43;4.66;
62631;PMS5003;48703;51.248;-0.546;2022-07-29T10:12:29;4.93;3.99;
62631;PMS5003;48703;51.248;-0.546;2022-07-29T10:15:31;4.51;4.51;
62631;PMS5003;48703;51.248;-0.546;2022-07-29T10:18:32;6.30;5.47;
62631;PMS5003;48703;51.248;-0.546;2022-07-29T10:21:33;4.71;4.69;
62631;PMS5003;48703;51.248;-0.546;2022-07-29T10:24:36;4.87;4.87;
62631;PMS5003;48703;51.248;-0.546;2022-07-29T10:27:37;5.74;5.42;
62631;PMS5003;48703;51.248;-0.546;2022-07-29T10:30:37;4.83;4.40;
62631;PMS5003;48703;51.248;-0.546;2022-07-29T10:33:42;5.40;4.70;
62631;PMS5003;48703;51.248;-0.546;2022-07-29T10:36:43;5.20;4.66;
62631;PMS5003;48703;51.248;-0.546;2022-07-29T10:39:44;4.16;3.99;
62631;PMS5003;48703;51.248;-0.546;2022-07-29T10:42:43;6.17;5.01;
62631;PMS5003;48703;51.248;-0.546;2022-07-29T10:45:44;4.64;4.39;
62631;PMS5003;48703;51.248;-0.546;2022-07-29T10:49:18;5.67;5.01;
62631;PMS5003;48703;51.248;-0.546;2022-07-29T10:51:51;5.69;4.10;
62631;PMS5003;48703;51.248;-0.546;2022-07-29T10:54:48;4.63;4.27;
62631;PMS5003;48703;51.248;-0.546;2022-07-29T10:58:10;5.76;4.34;
62631;PMS5003;48703;51.248;-0.546;2022-07-29T11:00:52;5.34;4.96;
62631;PMS5003;48703;51.248;-0.546;2022-07-29T11:03:53;5.21;4.66;
62631;PMS5003;48703;51.248;-0.546;2022-07-29T11:07:10;5.60;5.09;
62631;PMS5003;48703;51.248;-0.546;2022-07-29T11:10:28;5.46;4.27;
62631;PMS5003;48703;51.248;-0.546;2022-07-29T11:12:57;5.44;4.29;
62631;PMS5003;48703;51.248;-0.546;2022-07-29T11:15:58;6.20;4.89;
62631;PMS5003;48703;51.248;-0.546;2022-07-29T11:19:32;6.62;6.30;
62631;PMS5003;48703;51.248;-0.546;2022-07-29T11:22:01;4.27;3.97;
62631;PMS5003;48703;51.248;-0.546;2022-07-29T11:25:12;7.23;5.41;
62631;PMS5003;48703;51.248;-0.546;2022-07-29T11:28:08;5.36;4.63;
62631;PMS5003;48703;51.248;-0.546;2022-07-29T11:31:05;4.11;3.80;
62631;PMS5003;48703;51.248;-0.546;2022-07-29T11:34:23;5.71;5.07;
62631;PMS5003;48703;51.248;-0.546;2022-07-29T11:37:23;4.76;4.20;
62631;PMS5003;48703;51.248;-0.546;2022-07-29T11:40:11;6.11;5.19;
62631;PMS5003;48703;51.248;-0.546;2022-07-29T11:43:10;5.24;5.03;
62631;PMS5003;48703;51.248;-0.546;2022-07-29T11:46:12;4.83;4.83;
62631;PMS5003;48703;51.248;-0.546;2022-07-29T11:49:13;4.54;4.39;
62631;PMS5003;48703;51.248;-0.546;2022-07-29T11:52:14;6.34;5.44;
62631;PMS5003;48703;51.248;-0.546;2022-07-29T11:55:16;5.17;4.56;
62631;PMS5003;48703;51.248;-0.546;2022-07-29T11:58:21;4.53;4.49;
62631;PMS5003;48703;51.248;-0.546;2022-07-29T12:01:19;5.43;4.97;
62631;PMS5003;48703;51.248;-0.546;2022-07-29T12:04:20;5.17;4.96;
62631;PMS5003;48703;51.248;-0.546;2022-07-29T12:07:25;5.26;4.83;
62631;PMS5003;48703;51.248;-0.546;2022-07-29T12:10:23;4.40;3.89;
62631;PMS5003;48703;51.248;-0.546;2022-07-29T12:13:24;5.39;5.39;
62631;PMS5003;48703;51.248;-0.546;2022-07-29T12:16:34;5.01;4.97;
62631;PMS5003;48703;51.248;-0.546;2022-07-29T12:19:27;4.97;4.30;
62631;PMS5003;48703;51.248;-0.546;2022-07-29T12:22:29;5.33;4.99;
62631;PMS5003;48703;51.248;-0.546;2022-07-29T12:25:33;7.13;5.96;
62631;PMS5003;48703;51.248;-0.546;2022-07-29T12:28:31;5.61;5.61;
62631;PMS5003;48703;51.248;-0.546;2022-07-29T12:31:32;6.49;5.39;
62631;PMS5003;48703;51.248;-0.546;2022-07-29T12:34:33;5.07;4.77;
62631;PMS5003;48703;51.248;-0.546;2022-07-29T12:37:35;6.99;6.17;
62631;PMS5003;48703;51.248;-0.546;2022-07-29T12:40:36;6.91;6.49;
62631;PMS5003;48703;51.248;-0.546;2022-07-29T12:43:37;5.33;4.86;
62631;PMS5003;48703;51.248;-0.546;2022-07-29T12:46:39;5.83;5.37;
62631;PMS5003;48703;51.248;-0.546;2022-07-29T12:49:40;6.19;6.06;
62631;PMS5003;48703;51.248;-0.546;2022-07-29T12:52:41;6.37;5.21;
62631;PMS5003;48703;51.248;-0.546;2022-07-29T12:55:44;5.71;5.71;
62631;PMS5003;48703;51.248;-0.546;2022-07-29T12:58:44;5.14;5.14;
62631;PMS5003;48703;51.248;-0.546;2022-07-29T13:01:46;5.61;5.27;
62631;PMS5003;48703;51.248;-0.546;2022-07-29T13:04:54;6.20;5.84;
62631;PMS5003;48703;51.248;-0.546;2022-07-29T13:07:48;6.71;5.91;
62631;PMS5003;48703;51.248;-0.546;2022-07-29T13:10:50;6.71;6.71;
62631;PMS5003;48703;51.248;-0.546;2022-07-29T13:13:51;6.63;5.76;
62631;PMS5003;48703;51.248;-0.546;2022-07-29T13:17:00;6.60;6.30;
62631;PMS5003;48703;51.248;-0.546;2022-07-29T13:20:06;5.90;5.09;
62631;PMS5003;48703;51.248;-0.546;2022-07-29T13:22:56;6.83;6.14;
62631;PMS5003;48703;51.248;-0.546;2022-07-29T13:26:04;6.49;6.49;
62631;PMS5003;48703;51.248;-0.546;2022-07-29T13:28:58;5.99;5.67;
62631;PMS5003;48703;51.248;-0.546;2022-07-29T13:31:59;7.44;6.57;
62631;PMS5003;48703;51.248;-0.546;2022-07-29T13:35:02;7.26;6.79;
62631;PMS5003;48703;51.248;-0.546;2022-07-29T13:38:02;6.67;6.67;
62631;PMS5003;48703;51.248;-0.546;2022-07-29T13:41:03;6.87;6.10;
62631;PMS5003;48703;51.248;-0.546;2022-07-29T13:44:05;6.47;5.99;
62631;PMS5003;48703;51.248;-0.546;2022-07-29T13:47:06;6.31;5.71;
62631;PMS5003;48703;51.248;-0.546;2022-07-29T13:50:08;5.44;5.44;
62631;PMS5003;48703;51.248;-0.546;2022-07-29T13:53:09;6.13;5.90;
62631;PMS5003;48703;51.248;-0.546;2022-07-29T13:56:10;6.47;6.20;
62631;PMS5003;48703;51.248;-0.546;2022-07-29T13:59:12;6.09;5.70;
62631;PMS5003;48703;51.248;-0.546;2022-07-29T14:02:13;7.00;6.40;
62631;PMS5003;48703;51.248;-0.546;2022-07-29T14:05:14;5.39;5.39;
62631;PMS5003;48703;51.248;-0.546;2022-07-29T14:08:16;5.47;5.30;
62631;PMS5003;48703;51.248;-0.546;2022-07-29T14:11:17;6.13;5.96;
62631;PMS5003;48703;51.248;-0.546;2022-07-29T14:14:18;7.13;5.91;
62631;PMS5003;48703;51.248;-0.546;2022-07-29T14:17:20;6.16;5.90;
62631;PMS5003;48703;51.248;-0.546;2022-07-29T14:20:21;5.76;5.30;
62631;PMS5003;48703;51.248;-0.546;2022-07-29T14:23:22;5.41;5.41;
62631;PMS5003;48703;51.248;-0.546;2022-07-29T14:26:24;5.81;5.73;
62631;PMS5003;48703;51.248;-0.546;2022-07-29T14:29:25;7.17;6.27;
62631;PMS5003;48703;51.248;-0.546;2022-07-29T14:32:26;6.01;6.01;
62631;PMS5003;48703;51.248;-0.546;2022-07-29T14:35:28;7.54;7.20;
62631;PMS5003;48703;51.248;-0.546;2022-07-29T14:38:29;6.53;6.51;
62631;PMS5003;48703;51.248;-0.546;2022-07-29T14:41:30;7.37;7.00;
62631;PMS5003;48703;51.248;-0.546;2022-07-29T14:44:32;5.27;4.96;
62631;PMS5003;48703;51.248;-0.546;2022-07-29T14:47:33;5.96;5.96;
62631;PMS5003;48703;51.248;-0.546;2022-07-29T14:50:34;6.97;6.50;
62631;PMS5003;48703;51.248;-0.546;2022-07-29T14:53:36;5.54;5.37;
62631;PMS5003;48703;51.248;-0.546;2022-07-29T14:56:37;5.76;5.76;
62631;PMS5003;48703;51.248;-0.546;2022-07-29T14:59:38;6.66;5.86;
62631;PMS5003;48703;51.248;-0.546;2022-07-29T15:02:40;7.56;7.14;
62631;PMS5003;48703;51.248;-0.546;2022-07-29T15:05:41;7.49;6.59;
62631;PMS5003;48703;51.248;-0.546;2022-07-29T15:08:42;6.30;6.30;
62631;PMS5003;48703;51.248;-0.546;2022-07-29T15:11:44;6.31;5.51;
62631;PMS5003;48703;51.248;-0.546;2022-07-29T15:14:45;5.94;5.94;
62631;PMS5003;48703;51.248;-0.546;2022-07-29T15:17:46;6.77;6.47;
62631;PMS5003;48703;51.248;-0.546;2022-07-29T15:20:48;6.74;6.69;
62631;PMS5003;48703;51.248;-0.546;2022-07-29T15:23:49;6.57;6.26;
62631;PMS5003;48703;51.248;-0.546;2022-07-29T15:26:50;5.27;5.19;
62631;PMS5003;48703;51.248;-0.546;2022-07-29T15:29:52;5.57;5.34;
62631;PMS5003;48703;51.248;-0.546;2022-07-29T15:32:53;5.13;5.00;
62631;PMS5003;48703;51.248;-0.546;2022-07-29T15:35:55;6.37;6.37;
62631;PMS5003;48703;51.248;-0.546;2022-07-29T15:38:56;5.70;5.26;
62631;PMS5003;48703;51.248;-0.546;2022-07-29T15:41:57;6.47;6.21;
62631;PMS5003;48703;51.248;-0.546;2022-07-29T15:44:59;6.56;6.33;
62631;PMS5003;48703;51.248;-0.546;2022-07-29T15:48:00;5.50;5.50;
62631;PMS5003;48703;51.248;-0.546;2022-07-29T15:51:01;5.81;5.81;
62631;PMS5003;48703;51.248;-0.546;2022-07-29T15:54:03;5.56;5.43;
62631;PMS5003;48703;51.248;-0.546;2022-07-29T15:57:04;5.91;5.36;
62631;PMS5003;48703;51.248;-0.546;2022-07-29T16:00:06;6.19;6.19;
62631;PMS5003;48703;51.248;-0.546;2022-07-29T16:03:06;7.66;6.44;
62631;PMS5003;48703;51.248;-0.546;2022-07-29T16:06:08;5.86;5.86;
62631;PMS5003;48703;51.248;-0.546;2022-07-29T16:09:09;5.73;5.50;
62631;PMS5003;48703;51.248;-0.546;2022-07-29T16:12:10;7.10;6.29;
62631;PMS5003;48703;51.248;-0.546;2022-07-29T16:15:12;5.93;5.39;
62631;PMS5003;48703;51.248;-0.546;2022-07-29T16:18:13;6.17;5.99;
62631;PMS5003;48703;51.248;-0.546;2022-07-29T16:21:14;6.26;6.26;
62631;PMS5003;48703;51.248;-0.546;2022-07-29T16:24:16;6.24;5.76;
62631;PMS5003;48703;51.248;-0.546;2022-07-29T16:27:17;6.64;6.64;
62631;PMS5003;48703;51.248;-0.546;2022-07-29T16:30:18;8.49;7.27;
62631;PMS5003;48703;51.248;-0.546;2022-07-29T16:33:20;6.80;5.77;
62631;PMS5003;48703;51.248;-0.546;2022-07-29T16:36:21;5.51;5.51;
62631;PMS5003;48703;51.248;-0.546;2022-07-29T16:39:22;6.51;6.34;
62631;PMS5003;48703;51.248;-0.546;2022-07-29T16:42:23;6.59;5.71;
62631;PMS5003;48703;51.248;-0.546;2022-07-29T16:45:25;6.77;5.93;
62631;PMS5003;48703;51.248;-0.546;2022-07-29T16:48:26;5.79;5.79;
62631;PMS5003;48703;51.248;-0.546;2022-07-29T16:51:28;6.10;6.10;
62631;PMS5003;48703;51.248;-0.546;2022-07-29T16:54:29;6.23;6.10;
62631;PMS5003;48703;51.248;-0.546;2022-07-29T16:57:30;5.96;5.96;
62631;PMS5003;48703;51.248;-0.546;2022-07-29T17:00:32;6.79;5.63;
62631;PMS5003;48703;51.248;-0.546;2022-07-29T17:03:33;6.10;6.10;
62631;PMS5003;48703;51.248;-0.546;2022-07-29T17:06:35;6.66;5.93;
62631;PMS5003;48703;51.248;-0.546;2022-07-29T17:09:36;6.84;6.76;
62631;PMS5003;48703;51.248;-0.546;2022-07-29T17:12:37;5.87;5.87;
62631;PMS5003;48703;51.248;-0.546;2022-07-29T17:15:38;6.33;6.07;
62631;PMS5003;48703;51.248;-0.546;2022-07-29T17:18:39;5.83;5.83;
62631;PMS5003;48703;51.248;-0.546;2022-07-29T17:21:41;7.69;7.34;
62631;PMS5003;48703;51.248;-0.546;2022-07-29T17:24:42;9.44;8.24;
62631;PMS5003;48703;51.248;-0.546;2022-07-29T17:27:44;7.04;7.04;
62631;PMS5003;48703;51.248;-0.546;2022-07-29T17:30:45;11.00;10.79;
62631;PMS5003;48703;51.248;-0.546;2022-07-29T17:33:47;12.79;12.60;
62631;PMS5003;48703;51.248;-0.546;2022-07-29T17:36:48;7.86;6.86;
62631;PMS5003;48703;51.248;-0.546;2022-07-29T17:39:50;6.30;6.21;
62631;PMS5003;48703;51.248;-0.546;2022-07-29T17:42:51;7.06;7.06;
62631;PMS5003;48703;51.248;-0.546;2022-07-29T17:45:52;7.36;6.80;
62631;PMS5003;48703;51.248;-0.546;2022-07-29T17:48:54;5.93;5.93;
62631;PMS5003;48703;51.248;-0.546;2022-07-29T17:51:55;5.09;4.83;
62631;PMS5003;48703;51.248;-0.546;2022-07-29T17:54:56;7.46;6.46;
62631;PMS5003;48703;51.248;-0.546;2022-07-29T17:57:57;5.69;5.56;
62631;PMS5003;48703;51.248;-0.546;2022-07-29T18:00:59;5.80;5.80;
62631;PMS5003;48703;51.248;-0.546;2022-07-29T18:04:00;5.89;5.53;
62631;PMS5003;48703;51.248;-0.546;2022-07-29T18:07:01;8.07;7.49;
62631;PMS5003;48703;51.248;-0.546;2022-07-29T18:10:03;6.64;6.20;
62631;PMS5003;48703;51.248;-0.546;2022-07-29T18:13:04;5.90;5.90;
62631;PMS5003;48703;51.248;-0.546;2022-07-29T18:16:05;6.33;5.77;
62631;PMS5003;48703;51.248;-0.546;2022-07-29T18:19:06;5.41;5.41;
62631;PMS5003;48703;51.248;-0.546;2022-07-29T18:22:08;7.13;5.37;
62631;PMS5003;48703;51.248;-0.546;2022-07-29T18:25:09;5.29;5.29;
62631;PMS5003;48703;51.248;-0.546;2022-07-29T18:28:10;5.20;4.91;
62631;PMS5003;48703;51.248;-0.546;2022-07-29T18:31:12;6.17;6.17;